createdAt,value
2019-03-31T00:00:21.225Z,19.39
2019-03-31T00:01:21.798Z,19.29
2019-03-31T00:02:22.371Z,19.37
2019-03-31T00:03:22.944Z,19.39
2019-03-31T00:04:23.568Z,19.36
2019-03-31T00:05:24.148Z,19.36
2019-03-31T00:06:24.763Z,19.26
2019-03-31T00:07:25.335Z,19.31
2019-03-31T00:08:25.909Z,19.26
2019-03-31T00:09:26.548Z,19.31
2019-03-31T00:10:27.199Z,19.27
2019-03-31T00:11:27.774Z,19.21
2019-03-31T00:12:28.480Z,19.22
2019-03-31T00:13:29.024Z,19.30
2019-03-31T00:14:29.651Z,19.24
2019-03-31T00:15:30.225Z,19.26
2019-03-31T00:16:30.799Z,19.29
2019-03-31T00:17:31.372Z,19.26
2019-03-31T00:18:31.946Z,19.21
2019-03-31T00:19:32.572Z,19.24
2019-03-31T00:20:33.198Z,19.21
2019-03-31T00:21:33.772Z,19.19
2019-03-31T00:22:34.496Z,19.22
2019-03-31T00:23:35.070Z,19.22
2019-03-31T00:24:35.645Z,19.29
2019-03-31T00:25:36.217Z,19.24
2019-03-31T00:26:36.795Z,19.24
2019-03-31T00:27:37.374Z,19.26
2019-03-31T00:28:37.946Z,19.29
2019-03-31T00:29:38.520Z,19.30
2019-03-31T00:30:39.143Z,19.18
2019-03-31T00:31:39.815Z,19.15
2019-03-31T00:32:40.438Z,19.29
2019-03-31T00:33:41.060Z,19.18
2019-03-31T00:34:41.635Z,19.19
2019-03-31T00:35:42.208Z,19.15
2019-03-31T00:36:42.833Z,19.26
2019-03-31T00:37:43.407Z,19.22
2019-03-31T00:38:43.981Z,19.19
2019-03-31T00:39:44.554Z,19.14
2019-03-31T00:40:45.129Z,19.29
2019-03-31T00:41:45.703Z,19.19
2019-03-31T00:42:46.276Z,19.19
2019-03-31T00:43:46.850Z,19.21
2019-03-31T00:44:47.476Z,19.19
2019-03-31T00:45:48.049Z,19.15
2019-03-31T00:46:48.675Z,19.18
2019-03-31T00:47:49.333Z,19.16
2019-03-31T00:48:49.857Z,19.14
2019-03-31T00:49:50.430Z,19.14
2019-03-31T00:50:51.006Z,19.16
2019-03-31T00:51:51.630Z,19.12
2019-03-31T00:52:52.253Z,19.14
2019-03-31T00:53:52.837Z,19.18
2019-03-31T00:55:54.966Z,19.18
2019-03-31T00:56:55.533Z,19.15
2019-03-31T00:57:56.103Z,19.04
2019-03-31T00:58:56.666Z,19.09
2019-03-31T01:01:12.700Z,19.07
2019-03-31T01:02:13.267Z,18.99
2019-03-31T01:03:13.837Z,19.08
2019-03-31T01:04:14.403Z,19.02
2019-03-31T01:06:30.440Z,18.98
2019-03-31T01:07:31.008Z,19.08
2019-03-31T01:08:31.578Z,19.02
2019-03-31T01:09:32.146Z,19.02
2019-03-31T01:10:32.741Z,19.07
2019-03-31T01:11:33.366Z,19.07
2019-03-31T01:12:33.936Z,18.98
2019-03-31T01:13:34.553Z,18.99
2019-03-31T01:14:35.123Z,18.99
2019-03-31T01:15:35.693Z,18.98
2019-03-31T01:16:36.259Z,19.04
2019-03-31T01:17:36.829Z,18.98
2019-03-31T01:18:37.456Z,19.02
2019-03-31T01:19:38.061Z,18.99
2019-03-31T01:20:38.630Z,19.00
2019-03-31T01:21:39.249Z,19.00
2019-03-31T01:22:39.859Z,18.96
2019-03-31T01:23:40.430Z,18.84
2019-03-31T01:24:40.995Z,18.88
2019-03-31T01:25:41.564Z,18.95
2019-03-31T01:26:42.176Z,18.96
2019-03-31T01:27:42.743Z,19.00
2019-03-31T01:28:43.318Z,18.90
2019-03-31T01:29:43.888Z,18.98
2019-03-31T01:30:44.453Z,18.88
2019-03-31T01:31:50.570Z,18.96
2019-03-31T01:32:45.629Z,18.93
2019-03-31T01:33:46.252Z,18.86
2019-03-31T01:34:46.822Z,18.88
2019-03-31T01:37:02.664Z,18.89
2019-03-31T01:38:03.281Z,18.90
2019-03-31T01:39:03.850Z,18.89
2019-03-31T01:40:04.418Z,18.92
2019-03-31T01:41:04.986Z,18.86
2019-03-31T01:42:05.554Z,18.89
2019-03-31T01:43:06.123Z,18.88
2019-03-31T01:44:06.691Z,18.86
2019-03-31T01:45:07.257Z,18.89
2019-03-31T01:46:07.827Z,18.88
2019-03-31T01:47:08.395Z,18.83
2019-03-31T01:48:08.962Z,18.89
2019-03-31T01:49:09.538Z,18.83
2019-03-31T01:50:10.192Z,18.74
2019-03-31T01:51:10.809Z,18.88
2019-03-31T01:52:11.378Z,18.84
2019-03-31T01:53:11.948Z,18.80
2019-03-31T01:54:12.514Z,18.88
2019-03-31T01:55:13.139Z,18.78
2019-03-31T01:56:13.744Z,18.83
2019-03-31T01:57:14.315Z,18.78
2019-03-31T01:58:14.883Z,18.83
2019-03-31T01:59:15.523Z,18.80
2019-03-31T02:00:16.111Z,18.78
2019-03-31T02:01:16.682Z,18.77
2019-03-31T02:02:17.293Z,18.78
2019-03-31T02:03:17.864Z,18.75
2019-03-31T02:04:18.433Z,18.78
2019-03-31T02:05:19.161Z,18.78
2019-03-31T02:06:19.765Z,18.74
2019-03-31T02:07:20.334Z,18.81
2019-03-31T02:08:20.953Z,18.78
2019-03-31T02:09:21.521Z,18.77
2019-03-31T02:10:22.093Z,18.77
2019-03-31T02:11:22.661Z,18.73
2019-03-31T02:12:23.231Z,18.74
2019-03-31T02:13:23.798Z,18.71
2019-03-31T02:14:24.365Z,18.62
2019-03-31T02:15:24.934Z,18.74
2019-03-31T02:16:25.508Z,18.70
2019-03-31T02:17:26.074Z,18.70
2019-03-31T02:18:26.640Z,18.74
2019-03-31T02:19:27.256Z,18.66
2019-03-31T02:20:27.875Z,18.62
2019-03-31T02:21:28.492Z,18.62
2019-03-31T02:22:29.062Z,18.65
2019-03-31T02:23:29.630Z,18.63
2019-03-31T02:24:30.249Z,18.73
2019-03-31T02:25:30.866Z,18.62
2019-03-31T02:26:31.489Z,18.62
2019-03-31T02:27:32.056Z,18.65
2019-03-31T02:28:32.627Z,18.60
2019-03-31T02:29:33.243Z,18.63
2019-03-31T02:30:33.853Z,18.62
2019-03-31T02:31:34.495Z,18.62
2019-03-31T02:32:35.058Z,18.62
2019-03-31T02:33:35.626Z,18.59
2019-03-31T02:34:36.203Z,18.65
2019-03-31T02:35:36.767Z,18.62
2019-03-31T02:36:37.336Z,18.65
2019-03-31T02:37:37.956Z,18.66
2019-03-31T02:38:38.523Z,18.58
2019-03-31T02:39:39.145Z,18.62
2019-03-31T02:40:39.713Z,18.65
2019-03-31T02:41:40.281Z,18.59
2019-03-31T02:42:40.851Z,18.58
2019-03-31T02:43:41.420Z,18.63
2019-03-31T02:44:41.987Z,18.65
2019-03-31T02:45:42.556Z,18.58
2019-03-31T02:46:43.125Z,18.59
2019-03-31T02:47:43.742Z,18.60
2019-03-31T02:48:44.389Z,18.55
2019-03-31T02:49:45.182Z,18.56
2019-03-31T02:50:45.761Z,18.49
2019-03-31T02:51:46.359Z,18.56
2019-03-31T02:52:46.923Z,18.52
2019-03-31T02:53:47.546Z,18.58
2019-03-31T02:54:48.115Z,18.47
2019-03-31T02:55:48.727Z,18.49
2019-03-31T02:56:49.298Z,18.56
2019-03-31T02:57:49.910Z,18.58
2019-03-31T02:58:50.479Z,18.53
2019-03-31T02:59:51.048Z,18.52
2019-03-31T03:00:51.625Z,18.49
2019-03-31T03:01:52.231Z,18.52
2019-03-31T03:02:52.849Z,18.58
2019-03-31T03:03:53.417Z,18.50
2019-03-31T03:04:53.984Z,18.59
2019-03-31T03:05:54.558Z,18.49
2019-03-31T03:06:55.123Z,18.58
2019-03-31T03:07:55.689Z,18.52
2019-03-31T03:08:56.385Z,18.50
2019-03-31T03:09:56.986Z,18.53
2019-03-31T03:10:57.555Z,18.52
2019-03-31T03:11:58.124Z,18.56
2019-03-31T03:12:58.693Z,18.55
2019-03-31T03:13:59.261Z,18.55
2019-03-31T03:14:59.880Z,18.50
2019-03-31T03:16:00.447Z,18.49
2019-03-31T03:17:01.022Z,18.44
2019-03-31T03:18:01.640Z,18.40
2019-03-31T03:19:02.226Z,18.45
2019-03-31T03:20:02.778Z,18.55
2019-03-31T03:21:03.407Z,18.52
2019-03-31T03:22:03.941Z,18.45
2019-03-31T03:23:04.513Z,18.47
2019-03-31T03:24:05.078Z,18.43
2019-03-31T03:25:05.645Z,18.43
2019-03-31T03:26:06.213Z,18.41
2019-03-31T03:27:06.834Z,18.44
2019-03-31T03:28:07.409Z,18.45
2019-03-31T03:29:07.973Z,18.47
2019-03-31T03:30:08.655Z,18.40
2019-03-31T03:31:15.257Z,18.44
2019-03-31T03:32:10.862Z,18.43
2019-03-31T03:33:15.901Z,18.45
2019-03-31T03:34:13.035Z,18.41
2019-03-31T03:35:13.665Z,18.41
2019-03-31T03:36:14.224Z,18.44
2019-03-31T03:37:14.791Z,18.50
2019-03-31T03:38:15.362Z,18.44
2019-03-31T03:39:15.942Z,18.38
2019-03-31T03:40:16.546Z,18.43
2019-03-31T03:41:17.115Z,18.37
2019-03-31T03:42:17.683Z,18.38
2019-03-31T03:43:18.452Z,18.47
2019-03-31T03:44:19.021Z,18.45
2019-03-31T03:45:19.636Z,18.45
2019-03-31T03:46:20.261Z,18.43
2019-03-31T03:47:20.842Z,18.40
2019-03-31T03:48:21.395Z,18.41
2019-03-31T03:49:21.963Z,18.38
2019-03-31T03:50:22.532Z,18.44
2019-03-31T03:51:23.100Z,18.41
2019-03-31T03:52:23.675Z,18.40
2019-03-31T03:53:24.241Z,18.40
2019-03-31T03:54:24.872Z,18.38
2019-03-31T03:55:25.424Z,18.41
2019-03-31T03:56:29.046Z,18.41
2019-03-31T03:57:27.557Z,18.40
2019-03-31T03:58:28.176Z,18.40
2019-03-31T03:59:28.745Z,18.43
2019-03-31T04:00:29.317Z,18.40
2019-03-31T04:01:29.936Z,18.43
2019-03-31T04:02:30.550Z,18.35
2019-03-31T04:03:31.324Z,18.40
2019-03-31T04:04:31.775Z,18.44
2019-03-31T04:05:32.343Z,18.40
2019-03-31T04:06:32.913Z,18.41
2019-03-31T04:07:33.492Z,18.44
2019-03-31T04:08:34.049Z,18.41
2019-03-31T04:09:34.654Z,18.34
2019-03-31T04:10:35.273Z,18.33
2019-03-31T04:11:35.840Z,18.43
2019-03-31T04:12:36.409Z,18.43
2019-03-31T04:15:18.183Z,18.33
2019-03-31T04:16:18.751Z,18.35
2019-03-31T04:17:19.359Z,18.38
2019-03-31T04:18:19.927Z,18.33
2019-03-31T04:19:20.496Z,18.34
2019-03-31T04:20:21.064Z,18.40
2019-03-31T04:21:21.684Z,18.38
2019-03-31T04:22:22.302Z,18.38
2019-03-31T04:23:22.918Z,18.37
2019-03-31T04:24:23.564Z,18.31
2019-03-31T04:27:27.234Z,18.40
2019-03-31T04:28:27.800Z,18.33
2019-03-31T04:29:28.417Z,18.38
2019-03-31T04:30:29.031Z,18.34
2019-03-31T04:31:29.596Z,18.33
2019-03-31T04:32:30.168Z,18.29
2019-03-31T04:33:49.563Z,18.33
2019-03-31T04:34:32.396Z,18.31
2019-03-31T04:35:32.963Z,18.22
2019-03-31T04:36:33.531Z,18.34
2019-03-31T04:37:34.167Z,18.35
2019-03-31T04:38:34.716Z,18.29
2019-03-31T04:39:35.335Z,18.26
2019-03-31T04:40:35.917Z,18.34
2019-03-31T04:41:36.475Z,18.33
2019-03-31T04:42:37.043Z,18.34
2019-03-31T04:43:37.613Z,18.35
2019-03-31T04:44:38.182Z,18.33
2019-03-31T04:45:38.750Z,18.34
2019-03-31T04:46:39.369Z,18.33
2019-03-31T04:47:39.937Z,18.33
2019-03-31T04:48:40.508Z,18.28
2019-03-31T04:49:41.124Z,18.25
2019-03-31T04:50:41.693Z,18.26
2019-03-31T04:51:42.264Z,18.26
2019-03-31T04:52:42.830Z,18.29
2019-03-31T04:53:43.396Z,18.25
2019-03-31T04:54:43.965Z,18.22
2019-03-31T04:56:06.407Z,18.31
2019-03-31T04:57:07.026Z,18.28
2019-03-31T04:58:07.598Z,18.25
2019-03-31T05:00:09.781Z,18.25
2019-03-31T05:01:10.361Z,18.18
2019-03-31T05:02:10.933Z,18.25
2019-03-31T05:03:11.509Z,18.18
2019-03-31T05:04:12.084Z,18.22
2019-03-31T05:05:12.659Z,18.26
2019-03-31T05:06:13.272Z,18.18
2019-03-31T05:07:13.843Z,18.18
2019-03-31T05:10:11.429Z,18.26
2019-03-31T05:12:16.778Z,18.18
2019-03-31T05:18:01.459Z,18.22
2019-03-31T05:19:02.037Z,18.13
2019-03-31T05:20:02.605Z,18.13
2019-03-31T05:21:03.234Z,18.11
2019-03-31T05:22:03.846Z,18.13
2019-03-31T05:23:04.419Z,18.11
2019-03-31T05:24:04.992Z,18.19
2019-03-31T05:25:05.563Z,18.18
2019-03-31T05:26:06.137Z,18.19
2019-03-31T05:27:06.711Z,18.18
2019-03-31T05:28:07.285Z,18.19
2019-03-31T05:29:07.857Z,18.23
2019-03-31T05:30:08.432Z,18.20
2019-03-31T05:31:09.155Z,18.10
2019-03-31T05:32:09.779Z,18.13
2019-03-31T05:33:10.353Z,18.18
2019-03-31T05:34:19.001Z,18.13
2019-03-31T05:35:11.589Z,18.11
2019-03-31T05:36:12.163Z,18.10
2019-03-31T05:37:12.736Z,18.20
2019-03-31T05:38:13.358Z,18.13
2019-03-31T05:39:13.982Z,18.15
2019-03-31T05:40:14.555Z,18.08
2019-03-31T05:41:15.131Z,18.20
2019-03-31T05:42:15.705Z,18.08
2019-03-31T05:43:16.283Z,18.11
2019-03-31T05:44:16.854Z,18.23
2019-03-31T05:45:17.427Z,18.10
2019-03-31T05:46:18.102Z,18.07
2019-03-31T05:47:18.679Z,18.15
2019-03-31T05:48:19.299Z,18.19
2019-03-31T05:49:19.873Z,18.18
2019-03-31T05:50:20.452Z,18.08
2019-03-31T05:51:21.020Z,18.07
2019-03-31T05:52:21.592Z,18.10
2019-03-31T05:53:22.165Z,18.01
2019-03-31T05:54:22.788Z,18.08
2019-03-31T05:55:23.363Z,18.10
2019-03-31T05:56:23.936Z,18.10
2019-03-31T05:57:24.510Z,18.16
2019-03-31T05:58:25.127Z,18.08
2019-03-31T05:59:25.704Z,18.07
2019-03-31T06:00:26.272Z,18.13
2019-03-31T06:01:26.845Z,18.10
2019-03-31T06:02:27.466Z,18.13
2019-03-31T06:03:28.090Z,18.08
2019-03-31T06:04:33.454Z,18.08
2019-03-31T06:05:30.283Z,18.07
2019-03-31T06:06:30.905Z,18.00
2019-03-31T06:07:31.480Z,18.08
2019-03-31T06:08:32.054Z,18.10
2019-03-31T06:09:32.626Z,18.05
2019-03-31T06:10:33.256Z,18.08
2019-03-31T06:11:33.825Z,18.08
2019-03-31T06:12:34.401Z,18.08
2019-03-31T06:13:35.019Z,18.08
2019-03-31T06:14:35.593Z,17.97
2019-03-31T06:15:36.167Z,17.97
2019-03-31T06:16:36.789Z,17.98
2019-03-31T06:17:37.362Z,18.00
2019-03-31T06:18:37.936Z,18.03
2019-03-31T06:19:38.561Z,17.98
2019-03-31T06:20:39.133Z,18.10
2019-03-31T06:21:39.709Z,17.95
2019-03-31T06:22:40.423Z,17.95
2019-03-31T06:23:40.995Z,18.03
2019-03-31T06:24:41.571Z,18.03
2019-03-31T06:25:42.144Z,17.92
2019-03-31T06:26:42.721Z,18.01
2019-03-31T06:27:43.342Z,17.98
2019-03-31T06:28:43.959Z,17.98
2019-03-31T06:29:44.535Z,17.98
2019-03-31T06:30:45.104Z,17.92
2019-03-31T06:31:45.746Z,18.05
2019-03-31T06:32:46.317Z,18.00
2019-03-31T06:33:46.891Z,18.05
2019-03-31T06:34:48.042Z,17.97
2019-03-31T06:35:48.737Z,17.92
2019-03-31T06:36:49.313Z,17.97
2019-03-31T06:37:49.934Z,17.87
2019-03-31T06:38:50.507Z,17.97
2019-03-31T06:39:51.080Z,18.00
2019-03-31T06:40:51.654Z,17.87
2019-03-31T06:41:52.227Z,17.95
2019-03-31T06:42:52.850Z,18.00
2019-03-31T06:43:53.424Z,17.97
2019-03-31T06:44:53.998Z,18.01
2019-03-31T06:45:54.574Z,17.95
2019-03-31T06:46:55.147Z,17.94
2019-03-31T06:47:55.776Z,18.04
2019-03-31T06:48:56.342Z,17.97
2019-03-31T06:49:56.915Z,17.98
2019-03-31T06:50:57.488Z,17.97
2019-03-31T06:51:58.062Z,17.97
2019-03-31T06:52:58.640Z,18.00
2019-03-31T06:53:59.209Z,18.01
2019-03-31T06:54:59.778Z,18.01
2019-03-31T06:56:00.351Z,18.03
2019-03-31T06:57:00.972Z,17.98
2019-03-31T06:58:01.543Z,17.90
2019-03-31T06:59:02.115Z,17.94
2019-03-31T07:00:02.689Z,17.89
2019-03-31T07:01:03.260Z,17.94
2019-03-31T07:02:03.854Z,17.92
2019-03-31T07:03:04.403Z,17.97
2019-03-31T07:04:05.030Z,17.92
2019-03-31T07:05:05.690Z,17.98
2019-03-31T07:06:06.263Z,17.92
2019-03-31T07:07:06.834Z,17.95
2019-03-31T07:08:07.410Z,17.82
2019-03-31T07:09:08.029Z,17.97
2019-03-31T07:10:08.605Z,17.86
2019-03-31T07:11:09.179Z,17.85
2019-03-31T07:12:09.753Z,17.89
2019-03-31T07:13:10.329Z,17.85
2019-03-31T07:14:10.902Z,17.85
2019-03-31T07:15:11.477Z,17.87
2019-03-31T07:16:12.049Z,17.83
2019-03-31T07:17:12.624Z,17.90
2019-03-31T07:18:15.892Z,17.89
2019-03-31T07:19:14.813Z,17.82
2019-03-31T07:20:15.439Z,17.90
2019-03-31T07:21:16.063Z,17.87
2019-03-31T07:22:16.638Z,17.87
2019-03-31T07:23:17.211Z,17.85
2019-03-31T07:24:17.785Z,17.83
2019-03-31T07:25:18.452Z,17.86
2019-03-31T07:26:19.024Z,17.90
2019-03-31T07:27:19.596Z,17.80
2019-03-31T07:28:20.170Z,17.85
2019-03-31T07:29:20.743Z,17.89
2019-03-31T07:30:21.315Z,17.85
2019-03-31T07:31:21.889Z,17.83
2019-03-31T07:32:22.462Z,17.82
2019-03-31T07:33:23.035Z,17.90
2019-03-31T07:34:23.607Z,17.83
2019-03-31T07:35:24.179Z,17.83
2019-03-31T07:36:24.753Z,17.90
2019-03-31T07:37:25.325Z,17.87
2019-03-31T07:38:38.346Z,17.87
2019-03-31T07:39:27.651Z,17.87
2019-03-31T07:40:28.484Z,17.80
2019-03-31T07:41:29.204Z,17.89
2019-03-31T07:42:29.862Z,17.87
2019-03-31T07:43:30.425Z,17.87
2019-03-31T07:44:31.064Z,17.80
2019-03-31T07:45:31.621Z,17.89
2019-03-31T07:46:32.194Z,17.87
2019-03-31T07:47:32.766Z,17.82
2019-03-31T07:48:33.336Z,17.86
2019-03-31T07:49:33.914Z,17.83
2019-03-31T07:50:34.524Z,17.85
2019-03-31T07:51:37.542Z,17.90
2019-03-31T07:52:36.663Z,17.98
2019-03-31T07:53:37.236Z,18.00
2019-03-31T07:54:37.813Z,17.92
2019-03-31T07:55:38.437Z,17.97
2019-03-31T07:56:39.009Z,17.92
2019-03-31T07:57:39.608Z,17.97
2019-03-31T07:58:40.155Z,17.95
2019-03-31T07:59:40.927Z,18.00
2019-03-31T08:00:41.458Z,17.95
2019-03-31T08:01:42.036Z,17.98
2019-03-31T08:02:42.610Z,17.98
2019-03-31T08:03:43.185Z,18.04
2019-03-31T08:04:43.761Z,18.00
2019-03-31T08:05:44.385Z,17.97
2019-03-31T08:06:45.107Z,17.98
2019-03-31T08:07:45.681Z,17.92
2019-03-31T08:08:46.304Z,17.98
2019-03-31T08:09:46.876Z,18.01
2019-03-31T08:10:47.494Z,17.98
2019-03-31T08:11:48.066Z,17.98
2019-03-31T08:12:48.643Z,17.95
2019-03-31T08:13:49.215Z,17.97
2019-03-31T08:14:49.788Z,17.95
2019-03-31T08:15:50.359Z,18.03
2019-03-31T08:16:50.933Z,17.95
2019-03-31T08:17:51.560Z,17.95
2019-03-31T08:18:52.131Z,18.03
2019-03-31T08:19:52.700Z,17.90
2019-03-31T08:20:53.324Z,18.00
2019-03-31T08:21:53.897Z,18.03
2019-03-31T08:22:57.110Z,18.04
2019-03-31T08:23:56.084Z,17.94
2019-03-31T08:24:56.656Z,18.07
2019-03-31T08:25:57.231Z,18.00
2019-03-31T08:26:57.952Z,17.95
2019-03-31T08:27:58.524Z,17.97
2019-03-31T08:28:59.148Z,18.05
2019-03-31T08:30:00.777Z,18.00
2019-03-31T08:31:01.288Z,18.01
2019-03-31T08:32:01.865Z,18.01
2019-03-31T08:33:02.484Z,17.97
2019-03-31T08:34:03.125Z,18.10
2019-03-31T08:35:03.724Z,18.07
2019-03-31T08:36:04.299Z,18.05
2019-03-31T08:37:04.925Z,17.95
2019-03-31T08:38:05.547Z,18.03
2019-03-31T08:39:06.121Z,18.10
2019-03-31T08:40:06.696Z,18.08
2019-03-31T08:41:07.268Z,18.08
2019-03-31T08:42:07.849Z,18.07
2019-03-31T08:43:08.462Z,18.05
2019-03-31T08:44:09.036Z,18.10
2019-03-31T08:45:09.610Z,18.22
2019-03-31T08:46:10.277Z,18.23
2019-03-31T08:47:10.849Z,18.10
2019-03-31T08:48:11.422Z,18.15
2019-03-31T08:49:11.996Z,18.20
2019-03-31T08:50:12.567Z,18.11
2019-03-31T08:51:13.189Z,18.23
2019-03-31T08:52:13.812Z,18.18
2019-03-31T08:53:14.386Z,18.22
2019-03-31T08:54:14.959Z,18.16
2019-03-31T08:55:15.534Z,18.15
2019-03-31T08:56:16.198Z,18.18
2019-03-31T08:57:16.771Z,18.22
2019-03-31T08:58:17.341Z,18.20
2019-03-31T08:59:17.916Z,18.31
2019-03-31T09:00:18.497Z,18.35
2019-03-31T09:01:19.111Z,18.18
2019-03-31T09:02:19.734Z,18.19
2019-03-31T09:03:20.316Z,18.18
2019-03-31T09:04:20.885Z,18.11
2019-03-31T09:05:21.512Z,18.28
2019-03-31T09:06:22.090Z,18.20
2019-03-31T09:07:22.750Z,18.22
2019-03-31T09:08:23.325Z,18.26
2019-03-31T09:09:23.967Z,18.25
2019-03-31T09:10:24.541Z,18.31
2019-03-31T09:11:25.116Z,18.33
2019-03-31T09:12:25.695Z,18.28
2019-03-31T09:13:26.308Z,18.29
2019-03-31T09:14:26.883Z,18.31
2019-03-31T09:15:27.509Z,18.34
2019-03-31T09:16:28.085Z,18.29
2019-03-31T09:17:28.710Z,18.34
2019-03-31T09:18:29.286Z,18.35
2019-03-31T09:19:29.883Z,18.33
2019-03-31T09:20:30.456Z,18.31
2019-03-31T09:21:31.027Z,18.43
2019-03-31T09:22:31.652Z,18.44
2019-03-31T09:23:32.226Z,18.40
2019-03-31T09:24:32.802Z,18.40
2019-03-31T09:25:33.377Z,18.40
2019-03-31T09:26:33.952Z,18.41
2019-03-31T09:27:34.527Z,18.44
2019-03-31T09:28:35.098Z,18.44
2019-03-31T09:29:35.674Z,18.38
2019-03-31T09:30:36.342Z,18.50
2019-03-31T09:31:36.916Z,18.47
2019-03-31T09:32:42.537Z,18.44
2019-03-31T09:33:43.110Z,18.45
2019-03-31T09:34:43.884Z,18.58
2019-03-31T09:35:44.460Z,18.52
2019-03-31T09:36:45.186Z,18.47
2019-03-31T09:37:45.762Z,18.58
2019-03-31T09:38:48.422Z,18.50
2019-03-31T09:39:47.908Z,18.58
2019-03-31T09:40:48.538Z,18.59
2019-03-31T09:41:49.115Z,18.66
2019-03-31T09:42:49.695Z,18.80
2019-03-31T09:43:50.274Z,18.84
2019-03-31T09:44:50.851Z,18.88
2019-03-31T09:45:51.429Z,18.99
2019-03-31T09:46:52.005Z,19.07
2019-03-31T09:47:52.585Z,19.15
2019-03-31T09:48:53.172Z,19.29
2019-03-31T09:49:53.795Z,19.24
2019-03-31T09:50:56.578Z,19.29
2019-03-31T09:51:55.995Z,19.26
2019-03-31T09:52:56.574Z,19.36
2019-03-31T09:53:57.156Z,19.31
2019-03-31T09:54:57.729Z,19.44
2019-03-31T09:55:58.326Z,19.44
2019-03-31T09:56:58.906Z,19.45
2019-03-31T09:57:59.483Z,19.48
2019-03-31T09:59:00.060Z,19.51
2019-03-31T10:00:00.641Z,19.51
2019-03-31T10:01:01.224Z,19.62
2019-03-31T10:02:01.855Z,19.56
2019-03-31T10:03:02.482Z,19.58
2019-03-31T10:04:03.111Z,19.59
2019-03-31T10:05:03.691Z,19.63
2019-03-31T10:06:10.634Z,19.69
2019-03-31T10:07:05.848Z,19.69
2019-03-31T10:08:06.467Z,19.66
2019-03-31T10:09:07.097Z,19.74
2019-03-31T10:10:07.678Z,19.76
2019-03-31T10:11:08.259Z,19.77
2019-03-31T10:12:09.039Z,19.86
2019-03-31T10:13:09.620Z,19.86
2019-03-31T10:14:10.200Z,19.84
2019-03-31T10:15:10.781Z,19.96
2019-03-31T10:16:11.360Z,19.96
2019-03-31T10:17:11.942Z,19.95
2019-03-31T10:18:12.523Z,20.04
2019-03-31T10:19:13.104Z,20.10
2019-03-31T10:20:13.737Z,19.96
2019-03-31T10:21:14.317Z,20.06
2019-03-31T10:22:14.898Z,20.16
2019-03-31T10:23:15.479Z,20.16
2019-03-31T10:24:16.059Z,20.19
2019-03-31T10:25:16.690Z,20.22
2019-03-31T10:26:31.102Z,20.13
2019-03-31T10:27:18.844Z,20.21
2019-03-31T10:28:19.471Z,20.16
2019-03-31T10:29:20.051Z,20.31
2019-03-31T10:30:20.632Z,20.31
2019-03-31T10:31:21.213Z,20.32
2019-03-31T10:32:21.843Z,20.44
2019-03-31T10:33:22.423Z,20.50
2019-03-31T10:34:23.002Z,20.58
2019-03-31T10:35:23.582Z,20.59
2019-03-31T10:36:24.164Z,20.67
2019-03-31T10:37:24.744Z,20.72
2019-03-31T10:38:25.325Z,20.70
2019-03-31T10:39:25.912Z,20.78
2019-03-31T10:40:26.540Z,20.70
2019-03-31T10:41:27.125Z,20.82
2019-03-31T10:42:27.750Z,20.87
2019-03-31T10:43:28.333Z,20.87
2019-03-31T10:44:28.912Z,20.88
2019-03-31T10:45:29.495Z,20.85
2019-03-31T10:46:30.076Z,20.88
2019-03-31T10:47:30.658Z,20.97
2019-03-31T10:48:31.290Z,20.95
2019-03-31T10:49:31.922Z,21.03
2019-03-31T10:50:32.556Z,21.02
2019-03-31T10:51:33.143Z,21.07
2019-03-31T10:52:33.770Z,21.07
2019-03-31T10:53:34.353Z,21.11
2019-03-31T10:54:34.938Z,21.15
2019-03-31T10:55:35.526Z,21.25
2019-03-31T10:56:36.108Z,21.29
2019-03-31T10:57:36.691Z,21.24
2019-03-31T10:58:37.277Z,21.33
2019-03-31T10:59:37.861Z,21.42
2019-03-31T11:01:57.839Z,21.43
2019-03-31T11:03:12.139Z,21.54
2019-03-31T11:05:14.351Z,21.60
2019-03-31T11:09:49.367Z,21.89
2019-03-31T11:12:39.026Z,22.00
2019-03-31T11:13:39.663Z,22.07
2019-03-31T11:14:40.251Z,22.07
2019-03-31T11:18:15.646Z,22.22
2019-03-31T11:22:21.070Z,22.50
2019-03-31T11:23:21.686Z,22.50
2019-03-31T11:24:22.328Z,22.55
2019-03-31T11:26:24.543Z,22.70
2019-03-31T11:29:28.294Z,22.91
2019-03-31T11:30:28.934Z,22.96
2019-03-31T11:31:29.629Z,23.03
2019-03-31T11:32:30.217Z,23.17
2019-03-31T11:33:30.810Z,23.21
2019-03-31T11:34:31.601Z,23.23
2019-03-31T11:35:32.193Z,23.39
2019-03-31T11:36:32.787Z,23.37
2019-03-31T11:37:33.427Z,23.41
2019-03-31T11:38:34.041Z,23.48
2019-03-31T11:39:34.611Z,23.47
2019-03-31T11:40:35.246Z,23.58
2019-03-31T11:41:35.889Z,23.65
2019-03-31T11:42:36.480Z,23.62
2019-03-31T11:43:37.078Z,23.68
2019-03-31T11:44:37.774Z,23.74
2019-03-31T11:45:38.316Z,23.81
2019-03-31T11:46:38.960Z,23.84
2019-03-31T11:47:39.553Z,23.87
2019-03-31T11:48:40.145Z,23.93
2019-03-31T11:49:40.779Z,24.06
2019-03-31T11:50:41.378Z,24.13
2019-03-31T11:51:41.966Z,24.23
2019-03-31T11:52:42.559Z,24.33
2019-03-31T11:53:43.154Z,24.42
2019-03-31T11:54:45.898Z,24.43
2019-03-31T11:55:45.332Z,24.50
2019-03-31T11:56:45.975Z,24.54
2019-03-31T11:57:46.620Z,24.65
2019-03-31T11:58:47.262Z,24.78
2019-03-31T11:59:49.657Z,24.91
2019-03-31T12:00:48.546Z,24.99
2019-03-31T12:01:49.176Z,25.16
2019-03-31T12:02:49.770Z,25.23
2019-03-31T12:03:50.362Z,25.44
2019-03-31T12:04:50.958Z,25.35
2019-03-31T12:05:51.603Z,25.22
2019-03-31T12:06:52.200Z,24.89
2019-03-31T12:07:52.794Z,24.47
2019-03-31T12:08:53.388Z,24.73
2019-03-31T12:09:53.983Z,25.07
2019-03-31T12:10:54.624Z,25.33
2019-03-31T12:11:55.216Z,25.43
2019-03-31T12:12:55.812Z,25.60
2019-03-31T12:13:56.408Z,25.78
2019-03-31T12:15:00.539Z,25.91
2019-03-31T12:15:57.637Z,25.93
2019-03-31T12:16:58.231Z,25.85
2019-03-31T12:17:58.875Z,25.68
2019-03-31T12:18:59.470Z,25.83
2019-03-31T12:20:00.373Z,25.98
2019-03-31T12:21:01.074Z,26.07
2019-03-31T12:22:01.669Z,26.37
2019-03-31T12:23:02.313Z,26.48
2019-03-31T12:24:02.910Z,26.60
2019-03-31T12:25:03.502Z,26.66
2019-03-31T12:26:04.105Z,26.75
2019-03-31T12:27:04.698Z,26.38
2019-03-31T12:28:05.297Z,26.56
2019-03-31T12:29:05.935Z,26.78
2019-03-31T12:30:06.580Z,26.90
2019-03-31T12:31:07.172Z,26.97
2019-03-31T12:32:07.917Z,27.12
2019-03-31T12:33:08.511Z,26.75
2019-03-31T12:34:09.107Z,26.38
2019-03-31T12:35:09.701Z,25.80
2019-03-31T12:36:10.347Z,25.59
2019-03-31T12:37:10.996Z,25.23
2019-03-31T12:39:13.785Z,26.18
2019-03-31T12:40:15.479Z,26.06
2019-03-31T12:41:15.979Z,25.62
2019-03-31T12:42:16.562Z,25.13
2019-03-31T12:43:30.863Z,25.06
2019-03-31T12:44:31.447Z,25.03
2019-03-31T12:59:07.953Z,28.42
2019-03-31T13:00:08.578Z,28.48
2019-03-31T13:02:10.757Z,28.62
2019-03-31T13:05:28.430Z,28.86
2019-03-31T13:06:29.078Z,28.94
2019-03-31T13:07:29.675Z,29.02
2019-03-31T13:08:30.269Z,29.08
2019-03-31T13:09:30.871Z,29.31
2019-03-31T13:10:31.465Z,29.35
2019-03-31T13:11:32.056Z,29.44
2019-03-31T13:12:35.013Z,29.41
2019-03-31T13:13:33.287Z,29.45
2019-03-31T13:14:33.884Z,29.36
2019-03-31T13:15:34.570Z,29.53
2019-03-31T13:16:35.133Z,29.61
2019-03-31T13:17:48.521Z,29.72
2019-03-31T13:18:49.119Z,29.86
2019-03-31T13:20:51.343Z,29.98
2019-03-31T13:21:51.937Z,30.10
2019-03-31T13:22:52.583Z,30.18
2019-03-31T13:23:53.234Z,30.19
2019-03-31T13:24:53.834Z,30.19
2019-03-31T13:25:54.480Z,30.19
2019-03-31T13:26:55.128Z,30.31
2019-03-31T13:27:55.737Z,30.40
2019-03-31T13:28:56.368Z,30.44
2019-03-31T13:29:56.965Z,30.53
2019-03-31T13:30:57.562Z,30.57
2019-03-31T13:31:58.160Z,30.63
2019-03-31T13:32:58.756Z,30.68
2019-03-31T13:33:59.356Z,30.70
2019-03-31T13:35:00.003Z,30.73
2019-03-31T13:36:00.655Z,30.68
2019-03-31T13:37:01.293Z,30.65
2019-03-31T13:38:10.994Z,30.78
2019-03-31T13:39:03.479Z,30.84
2019-03-31T13:40:04.078Z,30.81
2019-03-31T13:41:04.672Z,30.80
2019-03-31T13:42:05.271Z,30.80
2019-03-31T13:43:05.922Z,30.92
2019-03-31T13:44:06.514Z,30.81
2019-03-31T13:45:07.110Z,30.88
2019-03-31T13:46:07.762Z,31.02
2019-03-31T13:47:08.358Z,30.99
2019-03-31T13:48:08.959Z,31.03
2019-03-31T13:49:09.554Z,31.05
2019-03-31T13:50:10.153Z,31.07
2019-03-31T13:51:10.757Z,31.03
2019-03-31T13:52:11.445Z,31.00
2019-03-31T13:53:12.091Z,31.00
2019-03-31T13:54:12.689Z,30.99